Kandiyohi, Minnesota
Current Conditions -  °F | °C
As of 12:55 AM on Friday 28 Nov 2014 (Local Time) from KBDH Reporting Station
Broken Clouds Broken Clouds  
Wind Chill: -11°   Ceiling: 9000
Heat Index:   Visibility: 7mi
Dew Point:   Wind: 20mph
Humidity: 73%   Direction: 120°ESE
Pressure: 30.09"   Gusts: 25mph
Location:  45.13°N, 94.93°W
Report Text: KBDH 280655Z AUTO 12017G22KT 7SM BKN090 M13/M17 A3009 RMK AO2
Loading
Personal Weather Stations






























Interactive Weather Map New forecast layout! Learn more

10-Day Weather Forecast

Advertisements
Track Severe Weather on mobile